Time;durP1;ratioP1;P1;durP2;ratioP2;P2;SDS_P1;SDS_P2;PMS_P1;PMS_P2;Temp;Humidity;BMP_temperature;BMP_pressure;BME280_temperature;BME280_humidity;BME280_pressure;Samples;Min_cycle;Max_cycle;Signal;HPM_P1;HPM_P2
2022/07/19 00:02:15;;;;;;;17.73;7.55;;;;;;;18.93;73.92;101901.91;5076365;28;20111;-79
2022/07/19 00:04:42;;;;;;;9.75;7.00;;;;;;;18.88;73.67;101913.34;5080539;28;20469;-78
2022/07/19 00:07:08;;;;;;;14.55;7.28;;;;;;;18.83;74.20;101911.31;5079412;28;20489;-78
2022/07/19 00:09:35;;;;;;;17.98;6.82;;;;;;;18.79;74.57;101910.06;5080399;28;20057;-80
2022/07/19 00:12:01;;;;;;;20.70;6.97;;;;;;;18.76;74.79;101911.72;5080026;28;20060;-82
2022/07/19 00:14:28;;;;;;;21.35;7.32;;;;;;;18.75;74.47;101909.50;5080885;28;20048;-83
2022/07/19 00:16:54;;;;;;;16.15;7.05;;;;;;;18.69;74.53;101908.66;5080579;28;20045;-76
2022/07/19 00:19:21;;;;;;;13.40;7.25;;;;;;;18.64;74.93;101910.06;5080386;28;20064;-79
2022/07/19 00:21:47;;;;;;;12.77;7.50;;;;;;;18.65;73.75;101900.78;5080505;28;20056;-79
2022/07/19 00:24:14;;;;;;;15.93;7.68;;;;;;;18.58;74.26;101903.81;5080553;28;20053;-80
2022/07/19 00:26:40;;;;;;;22.80;7.60;;;;;;;18.51;74.95;101899.53;5080553;28;20049;-81
2022/07/19 00:29:08;;;;;;;12.05;7.10;;;;;;;18.51;74.27;101896.09;5045885;28;20056;-81
2022/07/19 00:31:35;;;;;;;12.98;7.30;;;;;;;18.49;74.20;101895.81;5080358;28;20067;-79
2022/07/19 00:34:02;;;;;;;14.60;7.32;;;;;;;18.41;74.75;101895.44;5079968;28;20045;-79
2022/07/19 00:36:29;;;;;;;17.05;7.35;;;;;;;18.42;74.37;101898.88;5079616;28;20435;-80
2022/07/19 00:38:55;;;;;;;13.15;7.18;;;;;;;18.36;74.96;101900.78;5079391;28;20111;-78
2022/07/19 00:41:21;;;;;;;18.98;7.95;;;;;;;18.30;75.47;101897.97;5079460;28;20049;-80
2022/07/19 00:43:50;;;;;;;17.35;7.07;;;;;;;18.26;75.85;101898.16;5080054;28;20486;-81
2022/07/19 00:46:21;;;;;;;20.58;7.40;;;;;;;18.18;75.51;101899.00;5027644;28;20061;-81
2022/07/19 00:48:49;;;;;;;15.68;8.00;;;;;;;18.17;74.99;101906.34;5061642;28;20029;-81
2022/07/19 00:51:17;;;;;;;15.25;7.53;;;;;;;18.16;75.28;101904.84;5061279;28;20103;-81
2022/07/19 00:53:45;;;;;;;12.15;6.72;;;;;;;18.14;76.06;101906.53;5079504;28;20056;-78
2022/07/19 00:56:12;;;;;;;17.63;7.57;;;;;;;18.09;76.05;101901.78;5079483;28;20033;-77
2022/07/19 00:58:41;;;;;;;15.07;6.55;;;;;;;18.03;76.11;101898.22;5079368;28;20095;-79
2022/07/19 01:01:08;;;;;;;10.80;7.03;;;;;;;18.04;75.93;101902.41;5079913;28;20053;-79
2022/07/19 01:03:37;;;;;;;18.10;7.80;;;;;;;18.04;75.81;101908.56;5078411;28;20128;-79
2022/07/19 01:06:07;;;;;;;17.42;7.45;;;;;;;18.01;75.89;101901.38;5080103;28;20045;-80
2022/07/19 01:08:35;;;;;;;20.63;7.28;;;;;;;17.96;76.70;101900.09;5079574;28;20525;-80
2022/07/19 01:11:04;;;;;;;20.73;7.63;;;;;;;17.90;77.53;101903.91;5079170;28;20045;-79
2022/07/19 01:13:32;;;;;;;21.10;6.93;;;;;;;17.89;76.87;101895.06;5078656;28;20107;-84
2022/07/19 01:15:59;;;;;;;18.20;6.93;;;;;;;17.87;77.00;101905.56;5060933;28;20049;-77
2022/07/19 01:18:26;;;;;;;11.85;7.32;;;;;;;17.85;76.64;101899.91;5079351;28;20060;-81
2022/07/19 01:20:52;;;;;;;19.70;7.53;;;;;;;17.85;76.81;101902.59;5079245;28;20053;-80
2022/07/19 01:23:19;;;;;;;20.58;6.97;;;;;;;17.80;77.32;101895.16;5060626;28;20053;-80
2022/07/19 01:25:46;;;;;;;13.48;7.00;;;;;;;17.77;76.70;101898.03;5079452;28;20055;-79
2022/07/19 01:28:12;;;;;;;18.52;6.72;;;;;;;17.75;76.55;101901.16;5078909;28;20053;-81
2022/07/19 01:30:39;;;;;;;14.40;6.93;;;;;;;17.71;76.90;101889.84;5060850;28;20060;-79
2022/07/19 01:33:06;;;;;;;14.55;6.93;;;;;;;17.67;76.69;101900.78;5061125;28;20056;-79
2022/07/19 01:35:32;;;;;;;18.30;7.03;;;;;;;17.66;76.73;101898.53;5079151;28;20375;-77
2022/07/19 01:37:59;;;;;;;14.52;7.18;;;;;;;17.60;77.40;101890.31;5061349;28;20059;-79
2022/07/19 01:40:26;;;;;;;13.90;7.20;;;;;;;17.59;76.96;101896.91;5078429;28;20508;-81
2022/07/19 01:42:52;;;;;;;20.80;7.50;;;;;;;17.53;77.71;101895.34;5078639;28;20098;-81
2022/07/19 01:45:19;;;;;;;18.08;7.07;;;;;;;17.50;77.71;101883.53;5078516;28;20053;-81
2022/07/19 01:47:47;;;;;;;17.67;7.88;;;;;;;17.48;77.58;101885.94;5078863;28;20053;-80
2022/07/19 01:50:15;;;;;;;18.88;7.55;;;;;;;17.45;77.97;101891.50;5078884;28;20048;-82
2022/07/19 01:52:43;;;;;;;34.45;7.72;;;;;;;17.44;77.16;101890.00;5060553;28;20107;-78
2022/07/19 01:55:15;;;;;;;14.57;7.93;;;;;;;17.37;77.22;101887.66;5060619;28;20063;-78
2022/07/19 01:57:42;;;;;;;20.27;7.90;;;;;;;17.30;77.79;101877.97;5077939;28;20506;-83
2022/07/19 02:00:09;;;;;;;13.82;8.57;;;;;;;17.23;77.67;101883.69;5078957;28;20483;-83
2022/07/19 02:02:40;;;;;;;13.98;8.30;;;;;;;17.21;77.59;101886.09;5079027;28;20099;-79
2022/07/19 02:05:07;;;;;;;18.13;8.60;;;;;;;17.14;78.25;101883.78;5044588;28;20079;-82
2022/07/19 02:07:36;;;;;;;16.73;8.05;;;;;;;17.07;77.96;101884.13;5079175;28;20057;-81
2022/07/19 02:10:04;;;;;;;14.35;7.75;;;;;;;17.03;78.44;101880.84;5078885;28;20045;-79
2022/07/19 02:12:31;;;;;;;24.63;8.18;;;;;;;17.00;78.41;101882.50;5060383;28;20069;-82
2022/07/19 02:14:57;;;;;;;17.42;8.32;;;;;;;16.99;78.17;101881.75;5061650;28;20056;-81
2022/07/19 02:17:23;;;;;;;11.48;8.70;;;;;;;16.93;78.25;101872.81;5060993;28;20475;-81
2022/07/19 02:19:50;;;;;;;10.25;8.68;;;;;;;16.91;78.38;101871.78;5060537;28;20099;-81
2022/07/19 02:22:16;;;;;;;21.55;8.93;;;;;;;16.91;78.26;101866.41;5060725;28;20060;-82
2022/07/19 02:24:43;;;;;;;16.58;9.10;;;;;;;16.86;79.52;101870.47;5078635;28;20053;-80
2022/07/19 02:27:10;;;;;;;15.73;9.13;;;;;;;16.87;78.81;101866.56;5078407;28;20057;-84
2022/07/19 02:29:38;;;;;;;15.77;8.65;;;;;;;16.85;79.46;101865.53;5060848;28;20048;-82
2022/07/19 02:32:05;;;;;;;15.93;9.18;;;;;;;16.82;79.24;101863.75;5079184;28;20048;-80
2022/07/19 02:34:31;;;;;;;11.05;8.88;;;;;;;16.82;79.79;101867.19;5077557;28;20049;-80
2022/07/19 02:36:58;;;;;;;18.35;9.32;;;;;;;16.81;79.17;101862.25;5078523;28;20347;-83
2022/07/19 02:39:26;;;;;;;13.80;9.23;;;;;;;16.82;79.95;101858.38;5073959;28;20056;-82
2022/07/19 02:41:52;;;;;;;11.93;8.93;;;;;;;16.79;79.87;101859.31;5078802;28;20048;-83
2022/07/19 02:44:19;;;;;;;11.00;8.13;;;;;;;16.76;80.04;101857.53;5078506;28;20084;-82
2022/07/19 02:46:45;;;;;;;11.52;8.20;;;;;;;16.76;80.08;101857.53;5060542;28;20132;-79
2022/07/19 02:49:12;;;;;;;14.77;8.52;;;;;;;16.71;79.99;101852.78;5078287;28;20064;-80
2022/07/19 02:51:38;;;;;;;12.35;7.53;;;;;;;16.67;80.38;101864.44;5078449;28;20051;-79
2022/07/19 02:54:05;;;;;;;14.73;7.47;;;;;;;16.67;80.48;101855.63;5078084;28;20048;-80
2022/07/19 02:56:31;;;;;;;17.70;7.60;;;;;;;16.66;79.92;101860.25;5060094;28;20060;-81
2022/07/19 02:58:58;;;;;;;12.40;7.53;;;;;;;16.64;80.24;101859.97;5078088;28;20052;-79
2022/07/19 03:01:24;;;;;;;17.08;7.72;;;;;;;16.64;80.04;101856.53;5059684;28;20475;-80
2022/07/19 03:03:52;;;;;;;10.15;7.15;;;;;;;16.64;80.02;101861.91;5078174;28;20119;-80
2022/07/19 03:06:19;;;;;;;15.00;7.43;;;;;;;16.59;80.38;101865.91;5078047;28;20053;-81
2022/07/19 03:08:48;;;;;;;9.27;7.43;;;;;;;16.52;80.66;101865.50;5060858;28;20060;-83
2022/07/19 03:11:16;;;;;;;8.68;7.70;;;;;;;16.50;81.36;101860.56;5059794;28;20049;-81
2022/07/19 03:13:42;;;;;;;15.93;7.95;;;;;;;16.48;81.43;101856.84;5077853;28;20049;-81
2022/07/19 03:16:09;;;;;;;14.05;9.00;;;;;;;16.46;81.04;101845.81;5078139;28;20137;-82
2022/07/19 03:18:36;;;;;;;10.10;8.30;;;;;;;16.48;81.09;101848.78;5077959;28;20446;-84
2022/07/19 03:21:03;;;;;;;11.80;8.57;;;;;;;16.43;81.50;101850.13;5077443;28;20045;-81
2022/07/19 03:23:34;;;;;;;16.42;8.70;;;;;;;16.42;81.41;101853.28;5059843;28;20056;-81
2022/07/19 03:26:01;;;;;;;;;;;;;;;16.44;80.04;101854.31;5078539;28;20057;-81
2022/07/19 03:28:28;;;;;;;10.95;8.48;;;;;;;16.42;80.92;101855.97;5077716;28;19924;-81
2022/07/19 03:30:54;;;;;;;10.45;8.55;;;;;;;16.38;81.29;101853.47;5077742;28;20497;-81
2022/07/19 03:33:21;;;;;;;11.50;7.63;;;;;;;16.36;81.82;101855.84;5078089;28;20467;-80
2022/07/19 03:35:47;;;;;;;15.55;8.60;;;;;;;16.34;81.67;101848.25;5059450;28;20549;-81
2022/07/19 03:38:15;;;;;;;11.85;8.07;;;;;;;16.36;81.03;101861.22;5077584;28;20135;-82
2022/07/19 03:40:42;;;;;;;8.43;7.63;;;;;;;16.32;81.35;101856.00;5077252;28;20099;-78
2022/07/19 03:43:08;;;;;;;8.35;7.53;;;;;;;16.32;80.06;101861.38;5077142;28;20049;-81
2022/07/19 03:45:35;;;;;;;12.20;7.63;;;;;;;16.31;81.25;101859.91;5077483;28;20513;-83
2022/07/19 03:48:02;;;;;;;9.57;7.72;;;;;;;16.28;81.48;101857.38;5062908;28;20822;-81
2022/07/19 03:50:28;;;;;;;9.05;7.70;;;;;;;16.25;81.46;101859.00;5063243;28;20106;-81
2022/07/19 03:52:55;;;;;;;12.40;7.47;;;;;;;16.27;81.03;101859.31;5063104;28;20493;-82
2022/07/19 03:55:21;;;;;;;14.73;7.50;;;;;;;16.28;81.74;101857.38;5080687;28;20045;-81
2022/07/19 03:57:48;;;;;;;13.43;7.70;;;;;;;16.26;81.41;101857.06;5081183;28;20053;-80
2022/07/19 04:00:16;;;;;;;12.35;7.28;;;;;;;16.27;82.53;101855.88;5081173;28;20541;-79
2022/07/19 04:02:42;;;;;;;10.60;7.88;;;;;;;16.24;81.49;101854.84;5081193;28;20059;-81
2022/07/19 04:05:11;;;;;;;10.45;7.70;;;;;;;16.24;82.22;101854.84;5063657;28;20508;-80
2022/07/19 04:07:38;;;;;;;16.70;8.32;;;;;;;16.25;82.54;101852.88;5081438;28;20044;-79
2022/07/19 04:10:05;;;;;;;9.60;8.52;;;;;;;16.28;81.83;101857.38;5076857;28;20049;-81
2022/07/19 04:12:31;;;;;;;12.48;7.97;;;;;;;16.30;81.59;101853.03;5081577;28;20118;-81
2022/07/19 04:14:58;;;;;;;10.02;7.90;;;;;;;16.33;81.72;101859.44;5064182;28;20052;-81
2022/07/19 04:17:24;;;;;;;9.82;7.93;;;;;;;16.33;81.32;101857.50;5080760;28;20049;-81
2022/07/19 04:19:51;;;;;;;9.07;8.23;;;;;;;16.33;81.80;101860.19;5062700;28;20053;-79
2022/07/19 04:22:17;;;;;;;11.15;7.80;;;;;;;16.37;81.52;101857.34;5062917;28;20048;-80
2022/07/19 04:24:44;;;;;;;12.00;7.75;;;;;;;16.39;81.33;101862.28;5063399;28;20049;-81
2022/07/19 04:27:11;;;;;;;14.48;8.18;;;;;;;16.38;81.46;101858.84;5080515;28;20060;-81
2022/07/19 04:29:37;;;;;;;10.73;7.60;;;;;;;16.42;81.08;101861.34;5080276;28;20428;-81
2022/07/19 04:32:04;;;;;;;11.05;7.70;;;;;;;16.48;81.06;101862.22;5080374;28;20147;-81
2022/07/19 04:34:31;;;;;;;12.75;8.45;;;;;;;16.51;80.80;101858.63;5080230;28;20053;-82
2022/07/19 04:36:58;;;;;;;16.60;8.13;;;;;;;16.51;81.74;101862.06;5080330;28;20140;-81
2022/07/19 04:39:24;;;;;;;16.63;8.25;;;;;;;16.58;80.50;101858.31;5080589;28;20045;-81
2022/07/19 04:41:51;;;;;;;13.45;7.70;;;;;;;16.66;80.49;101851.44;5062367;28;20060;-81
2022/07/19 04:44:18;;;;;;;15.68;9.43;;;;;;;16.66;81.35;101849.50;5062587;28;20049;-82
2022/07/19 04:46:45;;;;;;;11.80;9.90;;;;;;;16.69;80.21;101849.78;5079742;28;20103;-81
2022/07/19 04:49:13;;;;;;;20.95;10.82;;;;;;;16.83;79.44;101847.16;5041756;28;20053;-79
2022/07/19 04:51:39;;;;;;;14.77;11.50;;;;;;;16.95;79.53;101848.91;5061990;28;20084;-80
2022/07/19 04:54:06;;;;;;;12.50;10.90;;;;;;;17.03;79.53;101845.88;5062250;28;20045;-80
2022/07/19 04:56:32;;;;;;;13.63;10.98;;;;;;;17.20;79.51;101850.38;5062713;28;20051;-83
2022/07/19 04:58:59;;;;;;;16.38;10.32;;;;;;;17.47;78.22;101843.34;5061612;28;20045;-81
2022/07/19 05:01:26;;;;;;;12.38;9.05;;;;;;;17.81;77.11;101852.81;5062798;28;20049;-81
2022/07/19 05:03:52;;;;;;;14.15;10.50;;;;;;;17.95;76.12;101852.81;5080418;28;20119;-83
2022/07/19 05:06:19;;;;;;;12.98;10.98;;;;;;;18.32;74.81;101858.56;5062664;28;20518;-84
2022/07/19 05:08:45;;;;;;;12.13;10.38;;;;;;;19.29;71.57;101849.38;5080321;28;20053;-82
2022/07/19 05:11:12;;;;;;;30.70;10.77;;;;;;;20.24;67.65;101850.31;5061371;28;20053;-85
2022/07/19 05:13:39;;;;;;;17.50;11.00;;;;;;;21.16;64.42;101857.28;5079642;28;20411;-83
2022/07/19 05:16:05;;;;;;;19.85;10.40;;;;;;;21.96;61.50;101855.03;5080062;28;20049;-83
2022/07/19 05:18:32;;;;;;;16.80;10.77;;;;;;;22.46;59.26;101854.25;5080326;28;20056;-80
2022/07/19 05:20:59;;;;;;;31.70;11.43;;;;;;;23.09;57.76;101861.78;5080236;28;20529;-81
2022/07/19 05:23:25;;;;;;;52.17;11.85;;;;;;;23.75;55.63;101862.66;5062804;28;20049;-82
2022/07/19 05:25:52;;;;;;;83.57;13.60;;;;;;;24.02;54.13;101858.25;5061222;28;20048;-83
2022/07/19 05:28:19;;;;;;;62.67;11.73;;;;;;;24.43;53.87;101858.16;5061612;28;20052;-78
2022/07/19 05:30:46;;;;;;;51.92;12.18;;;;;;;24.79;52.58;101856.03;5061429;28;20052;-78
2022/07/19 05:33:18;;;;;;;39.47;12.90;;;;;;;25.29;51.20;101851.25;5079606;28;20133;-78
2022/07/19 05:35:47;;;;;;;48.05;13.20;;;;;;;25.42;50.46;101854.78;5078896;28;20052;-76
2022/07/19 05:38:14;;;;;;;43.22;12.15;;;;;;;25.70;49.85;101848.22;5078496;28;20045;-72
2022/07/19 05:40:40;;;;;;;39.25;14.13;;;;;;;26.03;48.84;101852.38;5078015;28;20456;-77
2022/07/19 05:43:07;;;;;;;21.38;12.05;;;;;;;26.15;48.13;101850.94;5060262;28;20057;-75
2022/07/19 05:45:33;;;;;;;27.27;11.85;;;;;;;26.24;48.23;101848.56;5059776;28;20115;-75
2022/07/19 05:48:00;;;;;;;16.67;11.57;;;;;;;26.35;48.26;101847.66;5060379;28;20049;-75
2022/07/19 05:50:26;;;;;;;27.55;11.45;;;;;;;26.40;48.51;101851.50;5077999;28;20114;-75
2022/07/19 05:52:53;;;;;;;27.42;11.75;;;;;;;26.44;48.11;101843.75;5077780;28;20060;-76
2022/07/19 05:55:19;;;;;;;16.75;10.70;;;;;;;26.54;47.79;101853.00;5077583;28;20052;-76
2022/07/19 05:57:46;;;;;;;17.95;11.02;;;;;;;26.52;47.83;101852.78;5041874;28;20061;-74
2022/07/19 06:00:14;;;;;;;26.98;12.05;;;;;;;26.55;47.68;101857.94;5078240;28;20044;-75
2022/07/19 06:02:40;;;;;;;25.55;11.43;;;;;;;26.65;48.00;101855.53;5077844;28;20479;-73
2022/07/19 06:05:08;;;;;;;23.02;13.43;;;;;;;26.67;47.48;101855.00;5077777;28;20057;-73
2022/07/19 06:07:36;;;;;;;21.15;11.38;;;;;;;26.69;47.91;101847.75;5077730;28;20053;-74
2022/07/19 06:10:03;;;;;;;25.40;12.30;;;;;;;26.46;48.97;101849.41;5076802;28;20356;-73
2022/07/19 06:12:29;;;;;;;18.63;12.25;;;;;;;26.37;49.40;101847.13;5076299;28;20061;-73
2022/07/19 06:14:56;;;;;;;40.22;13.43;;;;;;;26.36;48.78;101845.66;5089288;28;20049;-76
2022/07/19 06:17:22;;;;;;;24.05;12.90;;;;;;;26.30;46.70;101853.19;5097852;28;20131;-74
2022/07/19 06:19:50;;;;;;;22.13;13.35;;;;;;;26.19;47.70;101854.09;5097607;28;20534;-74
2022/07/19 06:22:16;;;;;;;22.95;12.48;;;;;;;26.12;49.40;101847.28;5079516;28;20505;-73
2022/07/19 06:24:43;;;;;;;19.23;12.63;;;;;;;26.15;48.86;101853.66;5097215;28;20572;-75
2022/07/19 06:27:10;;;;;;;18.98;13.18;;;;;;;26.09;46.82;101853.75;5097800;28;20044;-76
2022/07/19 06:29:36;;;;;;;21.65;13.65;;;;;;;26.01;46.48;101854.91;5097816;28;20044;-74
2022/07/19 06:32:03;;;;;;;18.05;12.88;;;;;;;25.99;48.15;101847.25;5097752;28;20060;-74
2022/07/19 06:34:30;;;;;;;19.25;12.65;;;;;;;26.10;49.58;101855.25;5097709;28;20048;-74
2022/07/19 06:36:56;;;;;;;13.75;10.88;;;;;;;26.15;49.94;101851.69;5097947;28;20466;-75
2022/07/19 06:39:23;;;;;;;16.35;12.43;;;;;;;26.21;48.35;101854.31;5097238;28;20056;-75
2022/07/19 06:41:49;;;;;;;11.98;10.50;;;;;;;26.25;49.43;101847.28;5097547;28;20410;-75
2022/07/19 06:44:17;;;;;;;18.85;11.60;;;;;;;26.13;48.31;101848.75;5079167;28;20076;-76
2022/07/19 06:46:44;;;;;;;16.02;10.02;;;;;;;26.11;49.26;101851.25;5095636;28;20467;-76
2022/07/19 06:49:19;;;;;;;19.20;11.68;;;;;;;25.91;47.18;101843.66;5097660;28;20090;-77
2022/07/19 06:51:47;;;;;;;16.38;11.38;;;;;;;25.92;48.05;101850.59;5096999;28;20473;-75
2022/07/19 06:54:14;;;;;;;15.88;11.65;;;;;;;25.96;47.94;101848.31;5097627;28;20047;-76
2022/07/19 06:56:40;;;;;;;22.75;11.32;;;;;;;26.01;46.97;101847.44;5097244;28;20036;-76
2022/07/19 06:59:07;;;;;;;23.95;10.75;;;;;;;26.12;48.50;101852.72;5097168;28;20052;-75
2022/07/19 07:01:33;;;;;;;11.40;10.30;;;;;;;26.44;46.87;101849.94;5097169;28;20068;-78
2022/07/19 07:04:00;;;;;;;16.77;10.90;;;;;;;26.75;46.89;101848.38;5097340;28;20083;-77
2022/07/19 07:06:27;;;;;;;17.83;11.73;;;;;;;27.00;46.86;101843.41;5096483;28;20040;-76
2022/07/19 07:08:53;;;;;;;17.23;11.38;;;;;;;26.97;46.52;101836.28;5097218;28;20049;-76
2022/07/19 07:11:19;;;;;;;13.80;11.07;;;;;;;26.96;46.87;101847.72;5078456;28;20044;-76
2022/07/19 07:13:46;;;;;;;13.52;12.13;;;;;;;27.15;46.37;101843.59;5097335;28;20450;-77
2022/07/19 07:16:13;;;;;;;17.30;11.65;;;;;;;27.40;46.38;101846.75;5097529;28;20098;-77
2022/07/19 07:18:39;;;;;;;20.08;12.10;;;;;;;27.55;45.73;101840.72;5097291;28;20080;-76
2022/07/19 07:21:07;;;;;;;21.92;11.70;;;;;;;27.67;46.92;101843.94;5097996;28;20052;-76
2022/07/19 07:23:33;;;;;;;16.58;11.55;;;;;;;27.76;46.58;101838.72;5100981;28;20102;-74
2022/07/19 07:26:00;;;;;;;17.20;11.23;;;;;;;27.67;46.87;101839.19;5097079;28;20080;-75
2022/07/19 07:28:27;;;;;;;19.67;12.48;;;;;;;27.68;46.14;101837.94;5081377;28;20056;-77
2022/07/19 07:30:54;;;;;;;16.58;11.15;;;;;;;27.98;45.91;101837.47;5080358;28;20056;-75
2022/07/19 07:33:20;;;;;;;17.45;11.82;;;;;;;28.23;45.02;101837.09;5080305;28;20073;-74
2022/07/19 07:35:47;;;;;;;25.13;11.90;;;;;;;28.37;44.66;101833.00;5079095;28;20041;-75
2022/07/19 07:38:13;;;;;;;18.65;11.43;;;;;;;28.58;46.21;101841.88;5079568;28;20056;-76
2022/07/19 07:40:42;;;;;;;20.00;10.70;;;;;;;28.68;44.98;101836.63;5083491;28;20041;-76
2022/07/19 07:43:09;;;;;;;22.70;10.95;;;;;;;28.94;45.28;101830.16;5079594;28;20052;-76
2022/07/19 07:45:35;;;;;;;22.05;10.82;;;;;;;29.06;44.03;101826.56;5080073;28;20064;-81
2022/07/19 07:48:02;;;;;;;19.50;10.48;;;;;;;29.25;42.81;101822.72;5079600;28;20115;-78
2022/07/19 07:50:31;;;;;;;24.63;10.63;;;;;;;29.50;42.14;101827.19;5062353;28;20086;-77
2022/07/19 07:52:57;;;;;;;18.90;9.90;;;;;;;29.55;41.65;101822.09;5079129;28;20454;-75
2022/07/19 07:55:24;;;;;;;20.77;9.63;;;;;;;29.76;42.09;101822.63;5079892;28;20056;-79
2022/07/19 07:57:54;;;;;;;16.52;9.02;;;;;;;30.03;41.66;101823.72;5079516;28;20045;-77
2022/07/19 08:00:21;;;;;;;17.05;9.10;;;;;;;30.18;39.71;101826.44;5079655;28;20063;-77
2022/07/19 08:02:49;;;;;;;23.42;8.57;;;;;;;30.34;39.44;101816.16;5079045;28;20475;-78
2022/07/19 08:05:21;;;;;;;10.52;8.65;;;;;;;30.44;40.39;101828.00;5080332;28;20489;-78
2022/07/19 08:07:48;;;;;;;16.30;7.13;;;;;;;30.39;39.33;101820.00;5079499;28;20060;-78
2022/07/19 08:10:18;;;;;;;15.70;6.70;;;;;;;30.62;39.71;101823.41;5079475;28;20046;-76
2022/07/19 08:12:45;;;;;;;10.00;6.75;;;;;;;30.66;39.78;101820.28;5083317;28;20067;-76
2022/07/19 08:15:11;;;;;;;16.65;7.78;;;;;;;30.74;39.16;101816.22;5080602;28;20037;-77
2022/07/19 08:17:38;;;;;;;7.63;5.80;;;;;;;30.93;37.06;101826.00;5078762;28;20041;-79
2022/07/19 08:20:06;;;;;;;9.30;4.95;;;;;;;30.89;35.97;101820.16;5079322;28;20045;-79
2022/07/19 08:22:33;;;;;;;16.92;5.50;;;;;;;30.83;34.59;101818.34;5079527;28;20045;-79
2022/07/19 08:25:00;;;;;;;7.25;4.85;;;;;;;30.96;35.08;101817.38;5081145;28;20495;-80
2022/07/19 08:27:26;;;;;;;12.25;5.20;;;;;;;31.14;35.59;101818.22;5061319;28;20056;-80
2022/07/19 08:29:52;;;;;;;11.82;4.70;;;;;;;31.25;34.86;101817.03;5082653;28;20057;-79
2022/07/19 08:32:19;;;;;;;18.17;4.65;;;;;;;31.54;34.88;101814.66;5079593;28;20060;-79
2022/07/19 08:34:46;;;;;;;9.80;4.55;;;;;;;31.52;34.66;101817.22;5079937;28;20502;-77
2022/07/19 08:37:12;;;;;;;10.57;4.53;;;;;;;31.56;34.93;101810.03;5063641;28;20056;-78
2022/07/19 08:39:39;;;;;;;7.82;4.63;;;;;;;31.62;34.74;101810.50;5079346;28;20049;-80
2022/07/19 08:42:06;;;;;;;6.93;3.92;;;;;;;31.87;34.16;101807.78;5078850;28;20487;-78
2022/07/19 08:44:35;;;;;;;11.00;4.40;;;;;;;31.74;33.71;101800.53;5078503;28;20053;-78
2022/07/19 08:47:02;;;;;;;4.80;3.78;;;;;;;31.67;33.83;101798.56;5081774;28;20053;-78
2022/07/19 08:49:29;;;;;;;13.73;3.80;;;;;;;31.82;33.05;101805.97;5078910;28;20506;-79
2022/07/19 08:51:56;;;;;;;6.75;3.58;;;;;;;31.95;33.95;101797.41;5078414;28;20048;-80
2022/07/19 08:54:23;;;;;;;8.73;3.67;;;;;;;32.01;32.94;101797.16;5078338;28;20056;-75
2022/07/19 08:59:35;;;;;;;11.55;3.40;;;;;;;32.26;31.79;101786.81;5082812;28;20056;-76
2022/07/19 09:02:01;;;;;;;13.70;3.75;;;;;;;32.41;31.98;101785.88;5078239;28;20111;-76
2022/07/19 09:04:30;;;;;;;8.88;3.70;;;;;;;32.42;30.95;101781.84;5078431;28;20056;-78
2022/07/19 09:06:58;;;;;;;9.15;3.55;;;;;;;32.53;31.65;101788.88;5078010;28;20045;-77
2022/07/19 09:09:27;;;;;;;6.47;3.50;;;;;;;32.58;30.93;101788.63;5078048;28;20107;-77
2022/07/19 09:11:56;;;;;;;8.10;3.30;;;;;;;32.72;31.51;101795.25;5078145;28;20483;-74
2022/07/19 09:14:26;;;;;;;7.25;3.47;;;;;;;32.77;30.26;101793.56;5059906;28;20466;-76
2022/07/19 09:17:12;;;;;;;10.50;3.25;;;;;;;32.93;30.39;101783.75;5077996;28;20049;-77
2022/07/19 09:19:42;;;;;;;10.20;3.25;;;;;;;32.95;30.67;101789.44;5082369;28;20045;-76
2022/07/19 09:22:11;;;;;;;8.23;3.58;;;;;;;32.98;29.18;101784.78;5077142;28;20053;-76
2022/07/19 09:24:43;;;;;;;5.85;3.70;;;;;;;32.98;29.77;101795.81;5077961;28;20049;-77
2022/07/19 09:27:15;;;;;;;8.98;3.20;;;;;;;33.10;29.23;101785.72;5078104;28;20045;-77
2022/07/19 09:29:46;;;;;;;9.88;3.40;;;;;;;33.21;30.30;101787.94;5078090;28;20068;-81
2022/07/19 09:32:16;;;;;;;12.02;3.67;;;;;;;33.34;28.23;101784.09;5078267;28;20048;-77
2022/07/19 09:34:52;;;;;;;5.65;3.53;;;;;;;33.59;28.59;101786.63;5079048;28;20083;-78
2022/07/19 09:37:32;;;;;;;6.25;3.70;;;;;;;33.72;28.69;101781.41;5061090;28;20084;-78
2022/07/19 09:40:02;;;;;;;6.10;3.47;;;;;;;33.81;29.22;101773.72;5078257;28;20045;-78
2022/07/19 09:42:38;;;;;;;8.85;3.50;;;;;;;34.10;29.48;101769.66;5077555;28;20124;-79
2022/07/19 09:45:07;;;;;;;6.20;3.45;;;;;;;34.25;29.00;101767.91;5078183;28;20057;-78
2022/07/19 09:47:42;;;;;;;9.77;3.38;;;;;;;34.29;28.89;101755.09;5077894;28;20368;-78
2022/07/19 09:50:12;;;;;;;7.72;3.70;;;;;;;34.13;28.31;101765.00;5077993;28;20045;-77
2022/07/19 09:52:40;;;;;;;9.07;3.67;;;;;;;34.26;29.11;101759.03;5078133;28;20467;-76
2022/07/19 09:55:15;;;;;;;7.97;3.40;;;;;;;34.42;28.04;101764.97;5078864;28;20053;-77
2022/07/19 09:57:45;;;;;;;11.30;3.67;;;;;;;34.53;28.55;101761.63;5082367;28;20037;-80
2022/07/19 10:00:12;;;;;;;;;;;;;;;34.75;29.51;101756.91;5078587;28;20148;-79
2022/07/19 10:02:41;;;;;;;7.93;3.40;;;;;;;34.88;27.75;101752.94;5079031;28;19920;-80
2022/07/19 10:05:10;;;;;;;6.30;3.70;;;;;;;34.92;28.90;101751.16;5080275;28;20044;-81
2022/07/19 10:07:37;;;;;;;6.25;3.63;;;;;;;34.98;28.76;101756.38;5077843;28;20079;-78
2022/07/19 10:10:07;;;;;;;12.30;3.42;;;;;;;35.19;29.62;101750.19;5082712;28;20513;-77
2022/07/19 10:12:39;;;;;;;11.75;4.03;;;;;;;35.32;28.77;101744.13;5077542;28;20892;-76
2022/07/19 10:15:06;;;;;;;6.03;3.72;;;;;;;35.40;28.46;101744.69;5080027;28;20040;-75
2022/07/19 10:17:41;;;;;;;10.23;3.85;;;;;;;35.61;28.88;101741.16;5077891;28;20052;-76
2022/07/19 10:20:09;;;;;;;10.18;4.00;;;;;;;35.58;28.82;101736.84;5077180;28;20052;-77
2022/07/19 10:22:39;;;;;;;11.27;3.47;;;;;;;35.69;28.29;101739.66;5076615;28;20501;-77
2022/07/19 10:25:17;;;;;;;6.30;3.63;;;;;;;35.95;27.72;101743.41;5080214;28;20055;-78
2022/07/19 10:27:51;;;;;;;12.13;3.90;;;;;;;36.17;27.57;101737.78;5077393;28;20048;-78
2022/07/19 10:30:20;;;;;;;6.45;3.70;;;;;;;36.13;28.01;101738.25;5077374;28;20056;-76
2022/07/19 10:32:49;;;;;;;9.50;4.03;;;;;;;36.24;28.33;101725.75;5076800;28;20470;-79
2022/07/19 10:35:18;;;;;;;9.25;3.53;;;;;;;36.30;27.70;101729.66;5081156;28;20059;-79
2022/07/19 10:37:54;;;;;;;7.28;3.50;;;;;;;36.34;27.34;101729.19;5081474;28;20049;-79
2022/07/19 10:40:44;;;;;;;14.50;3.88;;;;;;;36.32;27.95;101726.28;5077102;28;20059;-79
2022/07/19 10:43:11;;;;;;;9.82;3.83;;;;;;;36.30;28.21;101726.16;5076679;28;20049;-77
2022/07/19 10:45:46;;;;;;;46.65;41.75;;;;;;;36.33;28.81;101725.69;5080999;28;20045;-78
2022/07/19 10:48:14;;;;;;;7.70;4.70;;;;;;;36.65;27.08;101726.19;5076955;28;20055;-77
2022/07/19 10:50:45;;;;;;;18.02;3.90;;;;;;;36.72;26.25;101717.66;5076980;28;20471;-80
2022/07/19 10:53:41;;;;;;;4.50;3.55;;;;;;;36.89;26.92;101713.06;5077040;28;20052;-79
2022/07/19 10:56:27;;;;;;;9.18;3.70;;;;;;;36.86;25.24;101708.72;5081919;28;20132;-79
2022/07/19 10:58:59;;;;;;;18.33;3.63;;;;;;;36.86;24.26;101714.28;5080709;28;20037;-77
2022/07/19 11:01:28;;;;;;;8.63;3.53;;;;;;;36.73;25.49;101712.81;5080314;28;20068;-77
2022/07/19 11:04:23;;;;;;;7.00;3.60;;;;;;;36.92;24.99;101714.63;5080080;28;20080;-78
2022/07/19 11:06:51;;;;;;;3.53;3.22;;;;;;;36.83;25.32;101715.47;5080044;28;20483;-77
2022/07/19 11:09:17;;;;;;;6.18;3.55;;;;;;;37.14;25.84;101715.22;5078142;28;20052;-75
2022/07/19 11:11:51;;;;;;;9.15;3.35;;;;;;;36.98;24.34;101704.63;5079899;28;20064;-76
2022/07/19 11:14:19;;;;;;;7.88;3.15;;;;;;;37.18;24.74;101705.06;5080355;28;20037;-78
2022/07/19 11:16:46;;;;;;;12.13;3.22;;;;;;;37.22;24.62;101699.75;5083144;28;20048;-78
2022/07/19 11:19:13;;;;;;;5.03;3.38;;;;;;;37.28;23.97;101699.38;5080045;28;20052;-77
2022/07/19 11:21:41;;;;;;;10.10;3.33;;;;;;;37.41;24.14;101690.41;5079659;28;20049;-76
2022/07/19 11:24:08;;;;;;;5.32;3.58;;;;;;;37.64;23.72;101695.84;5079772;28;20049;-78